Time;durP1;ratioP1;P1;durP2;ratioP2;P2;SDS_P1;SDS_P2;PMS_P1;PMS_P2;Temp;Humidity;BMP_temperature;BMP_pressure;BME280_temperature;BME280_humidity;BME280_pressure;Samples;Min_cycle;Max_cycle;Signal;HPM_P1;HPM_P2
2023/09/26 00:00:52;;;;;;;;;;;17.30;99.90;;;;;;5075939;28;19909;-56
2023/09/26 00:03:18;;;;;;;;;;;17.30;99.90;;;;;;5075470;28;19912;-56
2023/09/26 00:05:44;;;;;;;;;;;17.30;99.90;;;;;;5075890;28;19908;-56
2023/09/26 00:08:10;;;;;;;;;;;17.10;99.90;;;;;;5075705;28;19913;-56
2023/09/26 00:10:36;;;;;;;;;;;17.20;99.90;;;;;;5075593;28;20250;-55
2023/09/26 00:13:02;;;;;;;;;;;17.30;99.90;;;;;;5075011;28;19993;-56
2023/09/26 00:15:27;;;;;;;;;;;17.30;99.90;;;;;;5075760;28;20319;-56
2023/09/26 00:17:53;;;;;;;;;;;17.30;99.90;;;;;;5075501;28;19908;-56
2023/09/26 00:20:27;;;;;;;;;;;17.30;99.90;;;;;;5075641;28;19912;-56
2023/09/26 00:22:54;;;;;;;;;;;17.30;99.90;;;;;;5075687;28;19931;-56
2023/09/26 00:25:21;;;;;;;;;;;17.30;99.90;;;;;;5075508;28;20381;-56
2023/09/26 00:27:47;;;;;;;;;;;17.30;99.90;;;;;;5075827;28;19912;-56
2023/09/26 00:30:13;;;;;;;;;;;17.30;99.90;;;;;;5075560;28;19996;-55
2023/09/26 00:32:39;;;;;;;;;;;17.30;99.90;;;;;;5075242;28;20369;-56
2023/09/26 00:35:05;;;;;;;;;;;17.30;99.90;;;;;;5057601;28;19959;-56
2023/09/26 00:37:32;;;;;;;;;;;17.30;99.90;;;;;;5075528;28;19916;-56
2023/09/26 00:39:58;;;;;;;;;;;17.20;99.90;;;;;;5075178;28;19909;-56
2023/09/26 00:42:26;;;;;;;;;;;17.20;99.90;;;;;;5075432;28;20274;-55
2023/09/26 00:44:52;;;;;;;;;;;17.20;99.90;;;;;;5075675;28;19908;-56
2023/09/26 00:47:17;;;;;;;;;;;17.20;99.90;;;;;;5078782;28;19909;-56
2023/09/26 00:49:43;;;;;;;;;;;17.20;99.90;;;;;;5079001;28;19919;-56
2023/09/26 00:52:09;;;;;;;;;;;17.30;99.90;;;;;;5061177;28;19912;-56
2023/09/26 00:54:35;;;;;;;;;;;17.30;99.90;;;;;;5077598;28;20352;-55
2023/09/26 00:57:03;;;;;;;;;;;17.20;99.90;;;;;;5079123;28;19964;-55
2023/09/26 00:59:29;;;;;;;;;;;17.10;99.90;;;;;;5063528;28;20365;-56
2023/09/26 01:01:55;;;;;;;;;;;17.20;99.90;;;;;;5059245;28;19954;-56
2023/09/26 01:04:22;;;;;;;;;;;17.20;99.90;;;;;;5058873;28;19908;-56
2023/09/26 01:06:48;;;;;;;;;;;17.30;99.90;;;;;;5058503;28;19917;-56
2023/09/26 01:09:14;;;;;;;;;;;17.30;99.90;;;;;;5040697;28;19912;-55
2023/09/26 01:11:40;;;;;;;;;;;17.40;99.90;;;;;;5058801;28;19913;-56
2023/09/26 01:14:06;;;;;;;;;;;17.40;99.90;;;;;;5058664;28;19909;-56
2023/09/26 01:16:32;;;;;;;;;;;17.40;99.90;;;;;;5058512;28;20271;-56
2023/09/26 01:18:58;;;;;;;;;;;17.30;99.90;;;;;;5058630;28;19915;-56
2023/09/26 01:21:24;;;;;;;;;;;17.30;99.90;;;;;;5040756;28;19928;-56
2023/09/26 01:23:52;;;;;;;;;;;17.30;99.90;;;;;;5058331;28;19932;-55
2023/09/26 01:26:18;;;;;;;;;;;17.30;99.90;;;;;;5040987;28;19915;-56
2023/09/26 01:28:45;;;;;;;;;;;17.30;99.90;;;;;;5039810;28;20003;-55
2023/09/26 01:31:10;;;;;;;;;;;17.30;99.90;;;;;;5058409;28;20265;-56
2023/09/26 01:33:36;;;;;;;;;;;17.40;99.90;;;;;;5040040;28;19916;-56
2023/09/26 01:36:02;;;;;;;;;;;17.40;99.90;;;;;;5058147;28;19946;-56
2023/09/26 01:38:28;;;;;;;;;;;17.40;99.90;;;;;;5057904;28;20012;-56
2023/09/26 01:40:54;;;;;;;;;;;17.40;99.90;;;;;;5058363;28;19909;-55
2023/09/26 01:43:19;;;;;;;;;;;17.40;99.90;;;;;;5058010;28;19948;-55
2023/09/26 01:45:45;;;;;;;;;;;17.40;99.90;;;;;;5057878;28;19966;-55
2023/09/26 01:48:12;;;;;;;;;;;17.30;99.90;;;;;;5040248;28;19999;-55
2023/09/26 01:50:38;;;;;;;;;;;17.30;99.90;;;;;;5058037;28;19912;-55
2023/09/26 01:53:04;;;;;;;;;;;17.30;99.90;;;;;;5058232;28;19915;-55
2023/09/26 01:55:30;;;;;;;;;;;17.30;99.90;;;;;;5039699;28;19916;-56
2023/09/26 01:57:56;;;;;;;;;;;17.20;99.90;;;;;;5042256;28;20350;-56
2023/09/26 02:00:22;;;;;;;;;;;17.30;99.90;;;;;;5059842;28;19954;-56
2023/09/26 02:02:50;;;;;;;;;;;17.30;99.90;;;;;;5077724;28;20350;-56
2023/09/26 02:05:17;;;;;;;;;;;17.30;99.90;;;;;;5059928;28;20254;-56
2023/09/26 02:07:45;;;;;;;;;;;17.40;99.90;;;;;;5077221;28;19920;-56
2023/09/26 02:10:11;;;;;;;;;;;17.30;99.90;;;;;;5077761;28;19912;-55
2023/09/26 02:12:38;;;;;;;;;;;17.30;99.90;;;;;;5076229;28;20411;-56
2023/09/26 02:15:06;;;;;;;;;;;17.30;99.90;;;;;;5077385;28;19908;-56
2023/09/26 02:17:35;;;;;;;;;;;17.30;99.90;;;;;;5076346;28;20269;-56
2023/09/26 02:20:02;;;;;;;;;;;17.20;99.90;;;;;;5077958;28;19908;-55
2023/09/26 02:22:28;;;;;;;;;;;17.20;99.90;;;;;;5059345;28;20350;-56
2023/09/26 02:24:53;;;;;;;;;;;17.20;99.90;;;;;;5059540;28;19916;-56
2023/09/26 02:27:19;;;;;;;;;;;17.20;99.90;;;;;;5077456;28;19912;-56
2023/09/26 02:29:46;;;;;;;;;;;17.20;99.90;;;;;;5077074;28;19912;-56
2023/09/26 02:32:12;;;;;;;;;;;17.20;99.90;;;;;;5076133;28;20293;-56
2023/09/26 02:34:38;;;;;;;;;;;17.20;99.90;;;;;;5077202;28;20002;-56
2023/09/26 02:37:04;;;;;;;;;;;17.20;99.90;;;;;;5076802;28;19908;-56
2023/09/26 02:39:29;;;;;;;;;;;17.20;99.90;;;;;;5077311;28;19908;-56
2023/09/26 02:41:55;;;;;;;;;;;17.20;99.90;;;;;;5077123;28;19932;-55
2023/09/26 02:44:21;;;;;;;;;;;17.20;99.90;;;;;;5075290;28;20018;-56
2023/09/26 02:46:47;;;;;;;;;;;17.20;99.90;;;;;;5077082;28;19915;-56
2023/09/26 02:49:12;;;;;;;;;;;17.20;99.90;;;;;;5076827;28;19908;-56
2023/09/26 02:51:38;;;;;;;;;;;17.20;99.90;;;;;;5077002;28;19908;-56
2023/09/26 02:54:04;;;;;;;;;;;17.20;99.90;;;;;;5076901;28;19909;-55
2023/09/26 02:56:30;;;;;;;;;;;17.20;99.90;;;;;;5076754;28;20014;-56
2023/09/26 02:58:55;;;;;;;;;;;17.20;99.90;;;;;;5065318;28;20326;-56
2023/09/26 03:01:21;;;;;;;;;;;17.20;99.90;;;;;;5056849;28;20263;-55
2023/09/26 03:03:48;;;;;;;;;;;17.20;99.90;;;;;;5038658;28;20363;-56
2023/09/26 03:06:14;;;;;;;;;;;17.20;99.90;;;;;;5038433;28;19909;-56
2023/09/26 03:08:39;;;;;;;;;;;17.20;99.90;;;;;;5038075;28;20322;-56
2023/09/26 03:11:05;;;;;;;;;;;17.20;99.90;;;;;;5038667;28;19913;-56
2023/09/26 03:13:33;;;;;;;;;;;17.20;99.90;;;;;;5038226;28;20237;-56
2023/09/26 03:15:59;;;;;;;;;;;17.20;99.90;;;;;;5038581;28;19915;-56
2023/09/26 03:18:26;;;;;;;;;;;17.20;99.90;;;;;;5038515;28;19916;-56
2023/09/26 03:20:52;;;;;;;;;;;17.20;99.90;;;;;;5056645;28;19915;-56
2023/09/26 03:23:20;;;;;;;;;;;17.20;99.90;;;;;;5038327;28;19909;-56
2023/09/26 03:25:45;;;;;;;;;;;17.20;99.90;;;;;;5038483;28;19956;-55
2023/09/26 03:28:11;;;;;;;;;;;17.20;99.90;;;;;;5038310;28;20373;-55
2023/09/26 03:30:41;;;;;;;;;;;17.20;99.90;;;;;;5038163;28;19912;-56
2023/09/26 03:33:06;;;;;;;;;;;17.20;99.90;;;;;;5056147;28;19909;-56
2023/09/26 03:35:34;;;;;;;;;;;17.20;99.90;;;;;;5038264;28;19909;-56
2023/09/26 03:38:00;;;;;;;;;;;17.20;99.90;;;;;;5037812;28;19913;-56
2023/09/26 03:40:32;;;;;;;;;;;17.20;99.90;;;;;;5038211;28;19955;-56
2023/09/26 03:42:57;;;;;;;;;;;17.20;99.90;;;;;;5055971;28;19936;-56
2023/09/26 03:45:23;;;;;;;;;;;17.30;99.90;;;;;;5055589;28;19909;-56
2023/09/26 03:47:50;;;;;;;;;;;17.20;99.90;;;;;;5056084;28;19916;-56
2023/09/26 03:50:16;;;;;;;;;;;17.20;99.90;;;;;;5055995;28;19913;-56
2023/09/26 03:52:41;;;;;;;;;;;17.20;99.90;;;;;;5055688;28;19915;-56
2023/09/26 03:55:07;;;;;;;;;;;17.20;99.90;;;;;;5055959;28;20357;-56
2023/09/26 03:57:33;;;;;;;;;;;17.20;99.90;;;;;;5055859;28;19909;-56
2023/09/26 04:00:00;;;;;;;;;;;17.30;99.90;;;;;;5075155;28;19904;-56
2023/09/26 04:02:25;;;;;;;;;;;17.30;99.90;;;;;;5075897;28;19916;-56
2023/09/26 04:04:51;;;;;;;;;;;17.30;99.90;;;;;;5076231;28;19919;-56
2023/09/26 04:07:18;;;;;;;;;;;17.30;99.90;;;;;;5075235;28;20003;-56
2023/09/26 04:09:44;;;;;;;;;;;17.30;99.90;;;;;;5075680;28;19935;-56
2023/09/26 04:12:10;;;;;;;;;;;17.30;99.90;;;;;;5075728;28;19912;-56
2023/09/26 04:14:36;;;;;;;;;;;17.30;99.90;;;;;;5075363;28;19916;-56
2023/09/26 04:17:02;;;;;;;;;;;17.30;99.90;;;;;;5075799;28;19915;-56
2023/09/26 04:19:28;;;;;;;;;;;17.30;99.90;;;;;;5078013;28;19911;-56
2023/09/26 04:21:54;;;;;;;;;;;17.30;99.90;;;;;;5079577;28;20002;-56
2023/09/26 04:24:20;;;;;;;;;;;17.30;99.90;;;;;;5079690;28;19912;-56
2023/09/26 04:26:46;;;;;;;;;;;17.30;99.90;;;;;;5079663;28;19995;-56
2023/09/26 04:29:13;;;;;;;;;;;17.30;99.90;;;;;;5079344;28;19955;-56
2023/09/26 04:31:39;;;;;;;;;;;17.20;99.90;;;;;;5079531;28;19999;-56
2023/09/26 04:34:05;;;;;;;;;;;17.20;99.90;;;;;;5079551;28;19948;-56
2023/09/26 04:36:30;;;;;;;;;;;17.20;99.90;;;;;;5079243;28;20010;-56
2023/09/26 04:38:56;;;;;;;;;;;17.10;99.90;;;;;;5079093;28;20436;-56
2023/09/26 04:41:22;;;;;;;;;;;17.00;99.90;;;;;;5079489;28;20113;-56
2023/09/26 04:43:48;;;;;;;;;;;17.00;99.90;;;;;;5078936;28;19909;-56
2023/09/26 04:46:14;;;;;;;;;;;17.00;99.90;;;;;;5079423;28;19953;-56
2023/09/26 04:48:41;;;;;;;;;;;17.10;99.90;;;;;;5079227;28;19912;-56
2023/09/26 04:51:11;;;;;;;;;;;17.00;99.90;;;;;;5079107;28;19912;-56
2023/09/26 04:53:37;;;;;;;;;;;17.10;99.90;;;;;;5079131;28;19939;-56
2023/09/26 04:56:03;;;;;;;;;;;17.20;99.90;;;;;;5079048;28;19908;-56
2023/09/26 04:58:30;;;;;;;;;;;17.20;99.90;;;;;;5071556;28;19909;-56
2023/09/26 05:00:56;;;;;;;;;;;17.10;99.90;;;;;;5059068;28;19909;-56
2023/09/26 05:03:22;;;;;;;;;;;17.20;99.90;;;;;;5040923;28;19909;-56
2023/09/26 05:05:49;;;;;;;;;;;17.10;99.90;;;;;;5058705;28;19915;-56
2023/09/26 05:08:15;;;;;;;;;;;17.10;99.90;;;;;;5058650;28;19955;-56
2023/09/26 05:10:41;;;;;;;;;;;17.10;99.90;;;;;;5059043;28;19924;-56
2023/09/26 05:13:07;;;;;;;;;;;17.20;99.90;;;;;;5058303;28;20023;-56
2023/09/26 05:15:34;;;;;;;;;;;17.00;99.90;;;;;;5058728;28;19916;-56
2023/09/26 05:18:00;;;;;;;;;;;17.10;99.90;;;;;;5058494;28;19912;-56
2023/09/26 05:20:26;;;;;;;;;;;17.10;99.90;;;;;;5058013;28;20011;-56
2023/09/26 05:22:52;;;;;;;;;;;17.20;99.90;;;;;;5058608;28;19956;-56
2023/09/26 05:25:18;;;;;;;;;;;17.20;99.90;;;;;;5058537;28;19909;-56
2023/09/26 05:27:44;;;;;;;;;;;17.20;99.90;;;;;;5058118;28;19908;-56
2023/09/26 05:30:11;;;;;;;;;;;17.20;99.90;;;;;;5056844;28;19924;-56
2023/09/26 05:32:37;;;;;;;;;;;17.20;99.90;;;;;;5054936;28;19908;-56
2023/09/26 05:35:06;;;;;;;;;;;17.20;99.90;;;;;;5057582;28;19912;-56
2023/09/26 05:37:35;;;;;;;;;;;17.20;99.90;;;;;;5058187;28;19954;-56
2023/09/26 05:40:06;;;;;;;;;;;17.20;99.90;;;;;;5058027;28;19916;-56
2023/09/26 05:42:36;;;;;;;;;;;17.20;99.90;;;;;;5057774;28;19912;-56
2023/09/26 05:45:05;;;;;;;;;;;17.20;99.90;;;;;;5057920;28;19994;-56
2023/09/26 05:47:31;;;;;;;;;;;17.30;99.90;;;;;;5058330;28;19968;-56
2023/09/26 05:49:56;;;;;;;;;;;17.30;99.90;;;;;;5057518;28;20353;-56
2023/09/26 05:52:22;;;;;;;;;;;17.40;99.90;;;;;;5058002;28;19909;-56
2023/09/26 05:54:48;;;;;;;;;;;17.40;99.90;;;;;;5057949;28;19924;-56
2023/09/26 05:57:14;;;;;;;;;;;17.40;99.90;;;;;;5057639;28;20004;-56
2023/09/26 05:59:40;;;;;;;;;;;17.50;99.90;;;;;;5057593;28;19974;-56
2023/09/26 06:02:11;;;;;;;;;;;17.50;99.90;;;;;;5056911;28;19912;-56
2023/09/26 06:04:42;;;;;;;;;;;17.50;99.90;;;;;;5057053;28;19950;-56
2023/09/26 06:07:08;;;;;;;;;;;17.50;99.90;;;;;;5056456;28;19967;-56
2023/09/26 06:09:35;;;;;;;;;;;17.50;99.90;;;;;;5057626;28;19920;-56
2023/09/26 06:12:01;;;;;;;;;;;17.60;99.90;;;;;;5057322;28;20322;-55
2023/09/26 06:14:27;;;;;;;;;;;17.80;99.90;;;;;;5052924;28;19909;-55
2023/09/26 06:16:53;;;;;;;;;;;17.80;99.90;;;;;;5057105;28;19915;-55
2023/09/26 06:19:18;;;;;;;;;;;18.00;99.90;;;;;;5057525;28;19911;-55
2023/09/26 06:21:44;;;;;;;;;;;18.10;99.90;;;;;;5057261;28;19909;-55
2023/09/26 06:24:10;;;;;;;;;;;18.10;99.90;;;;;;5056717;28;19935;-55
2023/09/26 06:26:36;;;;;;;;;;;18.10;99.90;;;;;;5056866;28;19974;-55
2023/09/26 06:29:02;;;;;;;;;;;18.20;99.90;;;;;;5057485;28;20354;-55
2023/09/26 06:31:28;;;;;;;;;;;18.30;99.90;;;;;;5056914;28;19913;-55
2023/09/26 06:33:56;;;;;;;;;;;18.50;99.90;;;;;;5056442;28;19916;-55
2023/09/26 06:36:22;;;;;;;;;;;18.70;99.90;;;;;;5056858;28;19955;-55
2023/09/26 06:38:48;;;;;;;;;;;18.80;99.90;;;;;;5056755;28;19908;-55
2023/09/26 06:41:13;;;;;;;;;;;18.80;99.90;;;;;;5056851;28;20361;-55
2023/09/26 06:43:39;;;;;;;;;;;18.70;99.90;;;;;;5054103;28;20003;-56
2023/09/26 06:46:06;;;;;;;;;;;18.60;99.90;;;;;;5056289;28;20377;-55
2023/09/26 06:48:34;;;;;;;;;;;18.80;99.90;;;;;;5056258;28;20365;-55
2023/09/26 06:51:01;;;;;;;;;;;19.10;99.90;;;;;;5056578;28;20035;-55
2023/09/26 06:53:27;;;;;;;;;;;19.20;99.90;;;;;;5055790;28;19948;-55
2023/09/26 06:56:02;;;;;;;;;;;19.10;99.90;;;;;;5056367;28;19916;-55
2023/09/26 06:58:28;;;;;;;;;;;19.30;99.90;;;;;;5056296;28;19909;-55
2023/09/26 07:00:54;;;;;;;;;;;19.60;99.90;;;;;;5055524;28;19908;-55
2023/09/26 07:03:20;;;;;;;;;;;19.90;99.90;;;;;;5054921;28;19963;-56
2023/09/26 07:05:46;;;;;;;;;;;20.10;99.90;;;;;;5054816;28;20346;-56
2023/09/26 07:08:12;;;;;;;;;;;20.20;99.90;;;;;;5055644;28;20274;-56
2023/09/26 07:10:38;;;;;;;;;;;20.30;99.90;;;;;;5056174;28;19943;-56
2023/09/26 07:13:04;;;;;;;;;;;20.50;99.90;;;;;;5054771;28;19978;-56
2023/09/26 07:15:31;;;;;;;;;;;20.00;99.90;;;;;;5056204;28;19958;-56
2023/09/26 07:17:59;;;;;;;;;;;19.70;99.90;;;;;;5056147;28;19908;-56
2023/09/26 07:20:25;;;;;;;;;;;20.10;99.90;;;;;;5056008;28;19909;-56
2023/09/26 07:22:51;;;;;;;;;;;20.20;99.90;;;;;;5056192;28;20290;-56
2023/09/26 07:25:17;;;;;;;;;;;20.10;99.90;;;;;;5056041;28;20279;-57
2023/09/26 07:27:42;;;;;;;;;;;20.20;99.90;;;;;;5055657;28;19909;-56
2023/09/26 07:30:11;;;;;;;;;;;20.20;99.90;;;;;;5056063;28;19913;-56
2023/09/26 07:32:37;;;;;;;;;;;20.10;99.90;;;;;;5055145;28;20200;-56
2023/09/26 07:35:03;;;;;;;;;;;20.20;99.90;;;;;;5056334;28;19909;-56
2023/09/26 07:37:30;;;;;;;;;;;20.10;99.90;;;;;;5056428;28;20362;-56
2023/09/26 07:39:57;;;;;;;;;;;20.20;99.90;;;;;;5056123;28;19916;-56
2023/09/26 07:42:23;;;;;;;;;;;20.00;99.90;;;;;;5055667;28;19905;-56
2023/09/26 07:44:48;;;;;;;;;;;20.10;99.90;;;;;;5054582;28;19908;-56
2023/09/26 07:47:14;;;;;;;;;;;20.20;99.90;;;;;;5055891;28;20012;-56
2023/09/26 07:49:40;;;;;;;;;;;20.10;99.90;;;;;;5055343;28;20345;-56
2023/09/26 07:52:07;;;;;;;;;;;20.20;99.90;;;;;;5054507;28;19908;-56
2023/09/26 07:54:33;;;;;;;;;;;20.40;99.90;;;;;;5055394;28;19915;-56
2023/09/26 07:56:58;;;;;;;;;;;20.50;99.90;;;;;;5055354;28;20343;-57
2023/09/26 07:59:24;;;;;;;;;;;20.40;99.90;;;;;;5055498;28;19995;-56
2023/09/26 08:01:50;;;;;;;;;;;20.40;99.90;;;;;;5055304;28;20301;-56
2023/09/26 08:04:16;;;;;;;;;;;20.50;99.90;;;;;;5055117;28;19909;-56
2023/09/26 08:06:42;;;;;;;;;;;20.60;99.90;;;;;;5055610;28;19951;-56
2023/09/26 08:09:10;;;;;;;;;;;20.60;99.90;;;;;;5055207;28;19916;-56
2023/09/26 08:11:37;;;;;;;;;;;20.70;99.90;;;;;;5055469;28;19912;-56
2023/09/26 08:14:03;;;;;;;;;;;20.70;99.90;;;;;;5055086;28;20050;-56
2023/09/26 08:16:29;;;;;;;;;;;20.60;99.90;;;;;;5055508;28;19952;-56
2023/09/26 08:18:55;;;;;;;;;;;20.90;99.90;;;;;;5054875;28;19915;-56
2023/09/26 08:21:20;;;;;;;;;;;21.30;99.90;;;;;;5055462;28;19913;-56
2023/09/26 08:23:47;;;;;;;;;;;21.60;99.90;;;;;;5055495;28;19916;-56
2023/09/26 08:26:13;;;;;;;;;;;21.60;99.90;;;;;;5055088;28;19916;-56
2023/09/26 08:28:39;;;;;;;;;;;21.50;99.90;;;;;;5054780;28;19943;-56
2023/09/26 08:31:07;;;;;;;;;;;21.60;99.90;;;;;;5055279;28;20360;-56
2023/09/26 08:33:34;;;;;;;;;;;22.20;99.90;;;;;;5054653;28;19909;-56
2023/09/26 08:36:00;;;;;;;;;;;23.10;99.90;;;;;;5054974;28;19909;-56
2023/09/26 08:38:26;;;;;;;;;;;23.80;99.90;;;;;;5055011;28;20381;-56
2023/09/26 08:40:56;;;;;;;;;;;24.20;98.60;;;;;;5054891;28;19958;-56
2023/09/26 08:43:24;;;;;;;;;;;24.70;96.70;;;;;;5054716;28;19908;-56
2023/09/26 08:45:51;;;;;;;;;;;25.20;94.30;;;;;;5055185;28;19909;-56
2023/09/26 08:48:18;;;;;;;;;;;25.70;95.00;;;;;;5054969;28;19951;-57
2023/09/26 08:50:44;;;;;;;;;;;26.40;91.20;;;;;;5055020;28;20029;-56
2023/09/26 08:53:10;;;;;;;;;;;26.70;89.50;;;;;;5055596;28;19913;-56
2023/09/26 08:55:37;;;;;;;;;;;27.20;86.60;;;;;;5055068;28;20411;-56
2023/09/26 08:58:03;;;;;;;;;;;27.60;86.10;;;;;;5055453;28;19908;-56
2023/09/26 09:00:30;;;;;;;;;;;28.00;75.90;;;;;;5055118;28;20372;-56
2023/09/26 09:02:56;;;;;;;;;;;28.20;79.00;;;;;;5054636;28;19908;-56
2023/09/26 09:05:22;;;;;;;;;;;28.80;70.80;;;;;;5055130;28;19909;-57
2023/09/26 09:07:48;;;;;;;;;;;28.60;72.50;;;;;;5058615;28;19917;-56
2023/09/26 09:10:16;;;;;;;;;;;28.90;68.10;;;;;;5058335;28;20030;-56
2023/09/26 09:12:44;;;;;;;;;;;29.10;66.60;;;;;;5058966;28;20488;-56
2023/09/26 09:15:15;;;;;;;;;;;29.20;61.30;;;;;;5059132;28;20267;-56
2023/09/26 09:17:48;;;;;;;;;;;28.60;64.80;;;;;;5058359;28;19994;-56
2023/09/26 09:20:17;;;;;;;;;;;28.70;60.70;;;;;;5058845;28;19944;-56
2023/09/26 09:22:49;;;;;;;;;;;28.20;67.30;;;;;;5058764;28;19915;-56
2023/09/26 09:25:16;;;;;;;;;;;29.30;62.50;;;;;;5058651;28;19908;-56
2023/09/26 09:27:43;;;;;;;;;;;29.90;59.60;;;;;;5058625;28;20380;-57
2023/09/26 09:30:19;;;;;;;;;;;29.90;56.70;;;;;;5058944;28;19908;-56
2023/09/26 09:32:44;;;;;;;;;;;29.80;57.60;;;;;;5058033;28;19916;-56
2023/09/26 09:35:11;;;;;;;;;;;29.40;56.70;;;;;;5058739;28;19916;-56
2023/09/26 09:37:37;;;;;;;;;;;29.40;55.70;;;;;;5056403;28;19905;-57
2023/09/26 09:40:05;;;;;;;;;;;29.20;53.70;;;;;;5058086;28;19908;-56
2023/09/26 09:42:31;;;;;;;;;;;28.50;55.70;;;;;;5058587;28;19999;-56
2023/09/26 09:44:56;;;;;;;;;;;27.30;58.40;;;;;;5058328;28;19955;-57
2023/09/26 09:47:23;;;;;;;;;;;28.60;59.20;;;;;;5058025;28;19916;-56
2023/09/26 09:49:50;;;;;;;;;;;29.40;54.50;;;;;;5057953;28;20058;-56
2023/09/26 09:52:19;;;;;;;;;;;30.10;52.20;;;;;;5058406;28;19909;-56
2023/09/26 09:54:46;;;;;;;;;;;30.20;51.70;;;;;;5057821;28;20391;-56
2023/09/26 09:57:13;;;;;;;;;;;29.90;50.60;;;;;;5058214;28;19999;-56
2023/09/26 09:59:41;;;;;;;;;;;27.90;54.80;;;;;;5074689;28;19989;-56
2023/09/26 10:02:11;;;;;;;;;;;28.10;55.80;;;;;;5077985;28;19908;-56
2023/09/26 10:04:37;;;;;;;;;;;28.60;54.80;;;;;;5077983;28;19909;-56
2023/09/26 10:07:03;;;;;;;;;;;29.60;54.00;;;;;;5077863;28;19965;-56
2023/09/26 10:09:31;;;;;;;;;;;29.40;52.30;;;;;;5077868;28;19957;-56
2023/09/26 10:11:58;;;;;;;;;;;29.40;52.20;;;;;;5078220;28;19951;-56
2023/09/26 10:14:24;;;;;;;;;;;29.20;52.00;;;;;;5077812;28;19908;-57
2023/09/26 10:16:50;;;;;;;;;;;29.10;52.70;;;;;;5077578;28;19913;-56
2023/09/26 10:19:16;;;;;;;;;;;29.20;50.80;;;;;;5076397;28;19988;-56
2023/09/26 10:21:42;;;;;;;;;;;29.40;51.60;;;;;;5077892;28;19915;-57
2023/09/26 10:24:08;;;;;;;;;;;29.50;50.80;;;;;;5077610;28;19915;-57
2023/09/26 10:26:38;;;;;;;;;;;30.00;52.40;;;;;;5077779;28;19904;-57
2023/09/26 10:29:05;;;;;;;;;;;30.60;51.50;;;;;;5076944;28;19908;-57
2023/09/26 10:31:32;;;;;;;;;;;31.30;48.90;;;;;;5076786;28;20404;-57
2023/09/26 10:33:58;;;;;;;;;;;31.50;48.80;;;;;;5076977;28;19915;-57
2023/09/26 10:36:24;;;;;;;;;;;31.70;46.30;;;;;;5077152;28;19908;-57
2023/09/26 10:39:00;;;;;;;;;;;32.10;46.90;;;;;;5076419;28;19930;-57
2023/09/26 10:41:26;;;;;;;;;;;32.00;46.40;;;;;;5076886;28;20324;-57
2023/09/26 10:43:53;;;;;;;;;;;30.70;46.50;;;;;;5076806;28;20381;-57
2023/09/26 10:46:19;;;;;;;;;;;30.20;50.60;;;;;;5076542;28;19909;-57
2023/09/26 10:48:45;;;;;;;;;;;30.70;47.60;;;;;;5076692;28;20330;-57
2023/09/26 10:51:11;;;;;;;;;;;30.70;47.10;;;;;;5076513;28;19943;-57
2023/09/26 10:53:36;;;;;;;;;;;30.60;48.50;;;;;;5076250;28;20321;-57
2023/09/26 10:56:05;;;;;;;;;;;30.70;47.20;;;;;;5058638;28;19916;-57
2023/09/26 10:58:32;;;;;;;;;;;30.60;48.10;;;;;;5069263;28;19920;-57
2023/09/26 11:00:58;;;;;;;;;;;30.50;46.30;;;;;;5056458;28;19991;-57
2023/09/26 11:03:24;;;;;;;;;;;30.50;34.40;;;;;;5056048;28;19909;-55
2023/09/26 11:05:50;;;;;;;;;;;29.90;33.80;;;;;;5056620;28;19962;-55
2023/09/26 11:08:16;;;;;;;;;;;29.50;37.40;;;;;;5055798;28;19919;-55
2023/09/26 11:10:45;;;;;;;;;;;29.80;36.70;;;;;;5055551;28;19920;-55
2023/09/26 11:13:12;;;;;;;;;;;30.20;34.70;;;;;;5056154;28;20394;-57
2023/09/26 11:15:38;;;;;;;;;;;29.60;32.80;;;;;;5055454;28;19915;-57
2023/09/26 11:18:04;;;;;;;;;;;29.50;32.60;;;;;;5053506;28;19916;-57
2023/09/26 11:20:30;;;;;;;;;;;29.70;36.30;;;;;;5049079;28;19924;-57
2023/09/26 11:22:56;;;;;;;;;;;28.90;33.10;;;;;;5053102;28;20306;-57
2023/09/26 11:25:22;;;;;;;;;;;29.10;33.70;;;;;;5052036;28;19940;-57
2023/09/26 11:27:48;;;;;;;;;;;28.20;35.80;;;;;;5052333;28;19935;-57
2023/09/26 11:30:16;;;;;;;;;;;28.90;36.10;;;;;;5054293;28;19999;-57
2023/09/26 11:32:48;;;;;;;;;;;29.20;31.30;;;;;;5055873;28;19962;-56
2023/09/26 11:35:15;;;;;;;;;;;29.50;31.20;;;;;;5053892;28;20007;-56
2023/09/26 11:37:41;;;;;;;;;;;29.40;32.80;;;;;;5048909;28;20385;-55
2023/09/26 11:40:11;;;;;;;;;;;28.20;33.60;;;;;;5046992;28;19948;-55
2023/09/26 11:42:59;;;;;;;;;;;28.80;35.30;;;;;;5050784;28;19909;-56
2023/09/26 11:45:26;;;;;;;;;;;29.70;34.10;;;;;;5055575;28;19916;-56
2023/09/26 11:47:52;;;;;;;;;;;29.10;34.40;;;;;;5053887;28;19927;-57
2023/09/26 11:50:19;;;;;;;;;;;28.70;34.00;;;;;;5043596;28;19909;-56
2023/09/26 11:52:45;;;;;;;;;;;28.30;34.60;;;;;;5035332;28;20350;-57
2023/09/26 11:55:18;;;;;;;;;;;28.30;37.50;;;;;;5054113;28;19920;-57
2023/09/26 11:57:44;;;;;;;;;;;28.80;33.80;;;;;;5055850;28;19908;-57
2023/09/26 12:00:15;;;;;;;;;;;29.40;35.40;;;;;;5075471;28;19908;-56
2023/09/26 12:02:49;;;;;;;;;;;29.80;34.90;;;;;;5075289;28;19965;-57
2023/09/26 12:05:15;;;;;;;;;;;29.50;33.40;;;;;;5074491;28;20385;-56
2023/09/26 12:07:41;;;;;;;;;;;29.90;32.20;;;;;;5054431;28;19913;-57
2023/09/26 12:10:10;;;;;;;;;;;30.30;34.30;;;;;;5055735;28;20258;-57
2023/09/26 12:12:36;;;;;;;;;;;29.80;30.80;;;;;;5055203;28;20203;-57
2023/09/26 12:15:16;;;;;;;;;;;30.20;33.20;;;;;;5037306;28;20416;-57
2023/09/26 12:17:41;;;;;;;;;;;30.10;31.20;;;;;;5055394;28;19912;-56
2023/09/26 12:20:08;;;;;;;;;;;30.20;32.70;;;;;;5055197;28;19909;-56
2023/09/26 12:22:35;;;;;;;;;;;29.30;31.40;;;;;;5055269;28;19966;-57
2023/09/26 12:25:01;;;;;;;;;;;29.60;30.80;;;;;;5055657;28;20269;-57
2023/09/26 12:27:26;;;;;;;;;;;30.20;31.90;;;;;;5055587;28;19916;-57
2023/09/26 12:29:52;;;;;;;;;;;30.30;29.60;;;;;;5055218;28;20122;-57
2023/09/26 12:32:18;;;;;;;;;;;30.60;31.00;;;;;;5055382;28;19953;-57
2023/09/26 12:34:44;;;;;;;;;;;30.90;30.80;;;;;;5055239;28;19962;-56
2023/09/26 12:37:10;;;;;;;;;;;30.90;31.10;;;;;;5055242;28;19905;-57
2023/09/26 12:39:36;;;;;;;;;;;31.00;28.10;;;;;;5038110;28;20396;-56
2023/09/26 12:42:03;;;;;;;;;;;31.00;29.70;;;;;;5059345;28;19944;-56
2023/09/26 12:44:29;;;;;;;;;;;30.70;29.00;;;;;;5058322;28;19999;-56
2023/09/26 12:46:54;;;;;;;;;;;30.60;31.70;;;;;;5059393;28;19951;-57
2023/09/26 12:49:20;;;;;;;;;;;30.50;29.50;;;;;;5058800;28;19913;-57
2023/09/26 12:51:46;;;;;;;;;;;30.20;29.90;;;;;;5058754;28;20345;-57
2023/09/26 12:54:12;;;;;;;;;;;30.10;30.00;;;;;;5058885;28;19934;-57
2023/09/26 12:56:38;;;;;;;;;;;30.30;30.40;;;;;;5058809;28;20341;-57
2023/09/26 12:59:04;;;;;;;;;;;30.20;30.90;;;;;;5059123;28;19982;-57
2023/09/26 13:01:30;;;;;;;;;;;30.00;29.90;;;;;;5058978;28;19961;-57
2023/09/26 13:03:56;;;;;;;;;;;29.60;32.50;;;;;;5058538;28;19908;-56
2023/09/26 13:06:22;;;;;;;;;;;29.20;32.40;;;;;;5058383;28;20354;-56
2023/09/26 13:08:48;;;;;;;;;;;29.50;34.80;;;;;;5058447;28;19954;-56
2023/09/26 13:11:14;;;;;;;;;;;29.80;34.40;;;;;;5058230;28;19951;-56
2023/09/26 13:13:40;;;;;;;;;;;29.80;34.40;;;;;;5058477;28;19970;-56
2023/09/26 13:16:06;;;;;;;;;;;29.80;35.00;;;;;;5058633;28;20366;-56
2023/09/26 13:18:32;;;;;;;;;;;30.10;36.80;;;;;;5058350;28;19915;-56
2023/09/26 13:20:57;;;;;;;;;;;30.30;36.90;;;;;;5058220;28;20347;-56
2023/09/26 13:23:23;;;;;;;;;;;30.30;33.80;;;;;;5058101;28;19908;-56
2023/09/26 13:25:50;;;;;;;;;;;30.20;34.30;;;;;;5058348;28;20338;-56
2023/09/26 13:28:15;;;;;;;;;;;29.90;35.40;;;;;;5057631;28;20023;-56
2023/09/26 13:30:41;;;;;;;;;;;29.60;34.90;;;;;;5058847;28;20357;-56
2023/09/26 13:33:07;;;;;;;;;;;29.50;36.50;;;;;;5058010;28;19908;-56
2023/09/26 13:35:33;;;;;;;;;;;29.50;37.50;;;;;;5058301;28;19915;-56
2023/09/26 13:37:59;;;;;;;;;;;29.20;38.70;;;;;;5058333;28;19909;-56
2023/09/26 13:40:25;;;;;;;;;;;28.80;40.00;;;;;;5058202;28;20350;-56
2023/09/26 13:42:50;;;;;;;;;;;28.70;40.10;;;;;;5058013;28;19966;-56
2023/09/26 13:45:16;;;;;;;;;;;28.50;40.60;;;;;;5058163;28;19909;-56
2023/09/26 13:47:42;;;;;;;;;;;28.10;41.90;;;;;;5058625;28;20326;-56
2023/09/26 13:50:08;;;;;;;;;;;27.60;41.20;;;;;;5057932;28;19920;-56
2023/09/26 13:52:34;;;;;;;;;;;27.60;42.70;;;;;;5057410;28;19909;-56
2023/09/26 13:55:00;;;;;;;;;;;27.50;42.90;;;;;;5058043;28;20442;-56
2023/09/26 13:57:26;;;;;;;;;;;27.60;43.40;;;;;;5057802;28;19909;-56
2023/09/26 13:59:52;;;;;;;;;;;27.80;43.50;;;;;;5057799;28;19915;-56
2023/09/26 14:02:18;;;;;;;;;;;27.80;43.70;;;;;;5057745;28;19939;-56
2023/09/26 14:04:44;;;;;;;;;;;28.00;43.00;;;;;;5057741;28;20501;-56
2023/09/26 14:07:10;;;;;;;;;;;27.90;42.40;;;;;;5057520;28;19913;-56
2023/09/26 14:09:36;;;;;;;;;;;28.10;42.90;;;;;;5057708;28;20422;-56
2023/09/26 14:12:04;;;;;;;;;;;28.30;42.20;;;;;;5057712;28;20001;-56